createdAt,value
2019-01-16T00:02:27.434Z,33.77
2019-01-16T00:05:03.916Z,24.17
2019-01-16T00:07:49.959Z,18.70
2019-01-16T00:10:28.416Z,28.47
2019-01-16T00:13:08.558Z,29.73
2019-01-16T00:15:45.347Z,26.57
2019-01-16T00:18:39.831Z,31.13
2019-01-16T00:21:16.341Z,15.07
2019-01-16T00:24:10.434Z,25.03
2019-01-16T00:26:46.933Z,20.23
2019-01-16T00:29:23.679Z,19.60
2019-01-16T00:32:00.533Z,22.80
2019-01-16T00:34:54.903Z,24.27
2019-01-16T00:37:47.960Z,20.20
2019-01-16T00:40:27.609Z,21.20
2019-01-16T00:43:04.121Z,20.13
2019-01-16T00:45:53.664Z,17.93
2019-01-16T00:48:31.441Z,29.57
2019-01-16T00:51:07.953Z,16.90
2019-01-16T00:53:45.402Z,25.63
2019-01-16T00:56:25.357Z,21.23
2019-01-16T00:59:04.813Z,22.00
2019-01-16T01:01:44.382Z,19.27
2019-01-16T01:04:20.967Z,21.77
2019-01-16T01:07:07.822Z,21.23
2019-01-16T01:09:47.773Z,19.47
2019-01-16T01:12:42.689Z,18.20
2019-01-16T01:15:22.435Z,11.30
2019-01-16T01:17:59.223Z,20.87
2019-01-16T01:20:53.114Z,17.53
2019-01-16T01:23:33.233Z,20.00
2019-01-16T01:26:26.097Z,23.13
2019-01-16T01:29:03.884Z,23.80
2019-01-16T01:31:46.546Z,16.63
2019-01-16T01:34:36.084Z,19.37
2019-01-16T01:37:15.386Z,21.60
2019-01-16T01:39:58.617Z,25.47
2019-01-16T01:42:52.524Z,15.93
2019-01-16T01:45:39.422Z,18.37
2019-01-16T01:48:40.020Z,30.03
2019-01-16T01:51:27.077Z,21.23
2019-01-16T01:54:24.253Z,27.40
2019-01-16T01:57:04.026Z,20.07
2019-01-16T01:59:40.534Z,19.83
2019-01-16T02:02:30.125Z,24.20
2019-01-16T02:05:11.407Z,23.63
2019-01-16T02:07:51.060Z,26.43
2019-01-16T02:10:27.832Z,18.60
2019-01-16T02:13:15.483Z,18.03
2019-01-16T02:15:54.845Z,16.07
2019-01-16T02:18:34.057Z,21.70
2019-01-16T02:21:10.909Z,15.40
2019-01-16T02:23:47.410Z,14.70
2019-01-16T02:26:23.968Z,23.83
2019-01-16T02:29:00.552Z,17.70
2019-01-16T02:31:37.226Z,19.63
2019-01-16T02:34:31.706Z,31.70
2019-01-16T02:37:18.205Z,22.17
2019-01-16T02:39:54.694Z,25.03
2019-01-16T02:42:33.940Z,20.07
2019-01-16T02:45:10.521Z,22.30
2019-01-16T02:47:50.477Z,19.57
2019-01-16T02:50:26.995Z,24.50
2019-01-16T02:53:06.823Z,27.70
2019-01-16T02:56:03.166Z,28.30
2019-01-16T02:58:57.555Z,30.30
2019-01-16T03:01:34.749Z,20.43
2019-01-16T03:04:15.090Z,25.80
2019-01-16T03:06:57.880Z,23.97
2019-01-16T03:09:50.901Z,36.50
2019-01-16T03:12:47.140Z,31.70
2019-01-16T03:15:33.454Z,26.37
2019-01-16T03:18:13.054Z,29.63
2019-01-16T03:20:49.646Z,29.63
2019-01-16T03:23:29.675Z,30.63
2019-01-16T03:26:06.175Z,27.73
2019-01-16T03:28:42.658Z,32.07
2019-01-16T03:31:38.049Z,27.23
2019-01-16T03:34:24.038Z,27.43
2019-01-16T03:37:17.718Z,24.77
2019-01-16T03:40:00.860Z,36.73
2019-01-16T03:42:37.914Z,42.80
2019-01-16T03:45:20.616Z,38.37
2019-01-16T03:48:06.683Z,30.60
2019-01-16T03:50:59.524Z,28.03
2019-01-16T03:53:36.125Z,31.43
2019-01-16T03:56:12.904Z,31.10
2019-01-16T03:58:52.556Z,31.00
2019-01-16T04:01:39.676Z,31.70
2019-01-16T04:04:16.184Z,36.03
2019-01-16T04:06:55.765Z,44.70
2019-01-16T04:09:39.622Z,36.53
2019-01-16T04:12:35.825Z,41.37
2019-01-16T04:15:29.115Z,35.03
2019-01-16T04:18:23.227Z,38.30
2019-01-16T04:20:59.728Z,40.83
2019-01-16T04:23:36.225Z,37.40
2019-01-16T04:26:29.024Z,42.23
2019-01-16T04:29:23.090Z,53.93
2019-01-16T04:32:17.482Z,46.87
2019-01-16T04:35:04.009Z,52.30
2019-01-16T04:37:44.009Z,51.50
2019-01-16T04:40:24.273Z,45.73
2019-01-16T04:43:18.232Z,41.50
2019-01-16T04:45:57.510Z,42.93
2019-01-16T04:48:40.887Z,56.00
2019-01-16T04:51:20.813Z,41.17
2019-01-16T04:54:09.697Z,38.63
2019-01-16T04:56:52.580Z,39.00
2019-01-16T04:59:42.293Z,49.13
2019-01-16T05:02:28.438Z,51.53
2019-01-16T05:05:11.449Z,42.60
2019-01-16T05:07:58.052Z,35.27
2019-01-16T05:10:43.932Z,42.83
2019-01-16T05:13:20.608Z,49.53
2019-01-16T05:15:57.390Z,54.20
2019-01-16T05:18:47.081Z,53.63
2019-01-16T05:21:23.602Z,40.27
2019-01-16T05:24:17.008Z,46.20
2019-01-16T05:26:54.499Z,40.37
2019-01-16T05:29:38.250Z,31.53
2019-01-16T05:32:15.759Z,39.13
2019-01-16T05:34:58.154Z,45.60
2019-01-16T05:37:52.733Z,40.17
2019-01-16T05:40:45.441Z,32.70
2019-01-16T05:43:25.418Z,32.17
2019-01-16T05:46:02.015Z,30.77
2019-01-16T05:48:44.411Z,35.63
2019-01-16T05:51:38.824Z,30.10
2019-01-16T05:54:22.652Z,29.63
2019-01-16T05:57:15.745Z,30.10
2019-01-16T05:59:55.490Z,30.53
2019-01-16T06:02:49.947Z,24.60
2019-01-16T06:05:29.844Z,25.13
2019-01-16T06:08:06.424Z,28.23
2019-01-16T06:11:00.473Z,21.77
2019-01-16T06:13:42.197Z,26.63
2019-01-16T06:16:21.899Z,29.60
2019-01-16T06:19:18.231Z,26.83
2019-01-16T06:22:10.959Z,32.50
2019-01-16T06:25:04.626Z,37.77
2019-01-16T06:27:47.338Z,38.77
2019-01-16T06:30:26.892Z,31.27
2019-01-16T06:33:20.941Z,29.60
2019-01-16T06:36:02.086Z,30.90
2019-01-16T06:38:38.936Z,45.23
2019-01-16T06:41:15.476Z,41.00
2019-01-16T06:43:52.238Z,35.77
2019-01-16T06:46:31.706Z,38.50
2019-01-16T06:49:26.201Z,40.23
2019-01-16T06:52:03.397Z,60.13
2019-01-16T06:54:53.174Z,46.03
2019-01-16T06:57:49.172Z,36.07
2019-01-16T07:00:25.670Z,40.90
2019-01-16T07:03:07.298Z,34.83
2019-01-16T07:05:43.785Z,35.73
2019-01-16T07:08:37.853Z,40.53
2019-01-16T07:11:23.471Z,37.93
2019-01-16T07:14:13.243Z,36.43
2019-01-16T07:16:57.145Z,33.17
2019-01-16T07:19:43.156Z,35.13
2019-01-16T07:22:22.702Z,38.57
2019-01-16T07:25:05.357Z,40.53
2019-01-16T07:27:41.850Z,33.87
2019-01-16T07:30:24.447Z,36.60
2019-01-16T07:33:18.575Z,32.67
2019-01-16T07:35:55.065Z,39.00
2019-01-16T07:38:34.405Z,38.13
2019-01-16T07:41:23.507Z,33.93
2019-01-16T07:44:03.760Z,36.30
2019-01-16T07:46:59.519Z,47.07
2019-01-16T07:49:52.748Z,41.97
2019-01-16T07:52:29.521Z,35.30
2019-01-16T07:55:06.746Z,32.37
2019-01-16T07:57:50.772Z,36.50
2019-01-16T08:00:36.546Z,34.67
2019-01-16T08:03:16.314Z,33.87
2019-01-16T08:06:02.307Z,31.83
2019-01-16T08:08:45.440Z,34.47
2019-01-16T08:11:22.375Z,30.63
2019-01-16T08:14:17.646Z,29.00
2019-01-16T08:17:00.416Z,32.50
2019-01-16T08:19:36.989Z,63.27
2019-01-16T08:22:30.150Z,33.03
2019-01-16T08:25:07.628Z,26.43
2019-01-16T08:28:02.240Z,46.77
2019-01-16T08:30:38.771Z,32.43
2019-01-16T08:33:21.594Z,42.90
2019-01-16T08:36:15.765Z,37.57
2019-01-16T08:39:02.821Z,29.63
2019-01-16T08:41:57.873Z,30.97
2019-01-16T08:44:45.773Z,27.80
2019-01-16T08:47:25.078Z,26.77
2019-01-16T08:50:04.771Z,32.60
2019-01-16T08:53:01.452Z,28.17
2019-01-16T08:55:55.512Z,30.10
2019-01-16T08:58:41.326Z,41.07
2019-01-16T09:01:21.191Z,27.00
2019-01-16T09:04:15.395Z,33.17
2019-01-16T09:06:54.739Z,27.00
2019-01-16T09:09:32.204Z,23.47
2019-01-16T09:12:12.674Z,29.47
2019-01-16T09:14:49.457Z,33.63
2019-01-16T09:17:27.032Z,27.93
2019-01-16T09:20:03.520Z,28.00
2019-01-16T09:22:45.014Z,29.33
2019-01-16T09:25:39.248Z,21.83
2019-01-16T09:28:18.941Z,23.83
2019-01-16T09:31:01.659Z,25.23
2019-01-16T09:33:41.931Z,24.77
2019-01-16T09:36:21.334Z,27.43
2019-01-16T09:39:01.566Z,37.37
2019-01-16T09:41:59.629Z,27.77
2019-01-16T09:44:36.712Z,28.57
2019-01-16T09:47:14.619Z,21.77
2019-01-16T09:50:04.972Z,34.47
2019-01-16T09:52:44.354Z,24.50
2019-01-16T09:55:21.181Z,25.33
2019-01-16T09:58:11.455Z,29.57
2019-01-16T10:00:47.997Z,38.40
2019-01-16T10:03:40.872Z,28.17
2019-01-16T10:06:21.129Z,28.30
2019-01-16T10:09:16.946Z,25.07
2019-01-16T10:11:56.940Z,30.47
2019-01-16T10:14:42.713Z,26.10
2019-01-16T10:17:26.441Z,24.30
2019-01-16T10:20:08.785Z,24.77
2019-01-16T10:22:55.237Z,24.53
2019-01-16T10:25:34.391Z,18.40
2019-01-16T10:28:28.440Z,25.47
2019-01-16T10:31:18.370Z,24.83
2019-01-16T10:34:08.753Z,24.47
2019-01-16T10:37:05.647Z,29.13
2019-01-16T10:39:58.381Z,51.80
2019-01-16T10:42:42.211Z,16.30
2019-01-16T10:49:50.255Z,17.73
2019-01-16T10:53:12.669Z,20.53
2019-01-16T10:56:23.107Z,45.60
2019-01-16T10:58:59.881Z,19.33
2019-01-16T11:01:43.766Z,22.73
2019-01-16T11:04:26.160Z,22.83
2019-01-16T11:07:09.899Z,17.90
2019-01-16T11:09:48.343Z,24.23
2019-01-16T11:12:34.412Z,25.27
2019-01-16T11:15:17.133Z,25.23
2019-01-16T11:18:12.134Z,20.77
2019-01-16T11:20:51.370Z,19.17
2019-01-16T11:23:45.405Z,21.33
2019-01-16T11:26:22.898Z,18.47
2019-01-16T11:29:03.111Z,18.43
2019-01-16T11:31:39.577Z,45.73
2019-01-16T11:34:22.483Z,16.77
2019-01-16T11:37:09.150Z,25.87
2019-01-16T11:39:49.142Z,14.90
2019-01-16T11:42:36.918Z,22.97
2019-01-16T11:45:15.407Z,21.73
2019-01-16T11:48:09.793Z,22.10
2019-01-16T11:50:46.282Z,19.57
2019-01-16T11:53:42.527Z,18.77
2019-01-16T11:56:23.666Z,14.63
2019-01-16T11:59:00.541Z,19.37
2019-01-16T12:01:39.791Z,21.07
2019-01-16T12:04:34.850Z,17.17
2019-01-16T12:07:11.658Z,16.27
2019-01-16T12:09:51.482Z,14.53
2019-01-16T12:12:45.925Z,17.97
2019-01-16T12:15:42.194Z,18.63
2019-01-16T12:18:36.642Z,17.40
2019-01-16T12:21:26.298Z,16.53
2019-01-16T12:24:01.450Z,14.17
2019-01-16T12:26:44.764Z,18.97
2019-01-16T12:29:22.562Z,18.67
2019-01-16T12:32:05.889Z,12.77
2019-01-16T12:34:59.938Z,15.43
2019-01-16T12:37:55.670Z,15.70
2019-01-16T12:40:35.241Z,15.80
2019-01-16T12:43:24.509Z,14.63
2019-01-16T12:46:05.211Z,13.23
2019-01-16T12:48:54.747Z,28.17
2019-01-16T12:51:48.954Z,18.47
2019-01-16T12:54:42.115Z,14.73
2019-01-16T12:57:31.446Z,20.67
2019-01-16T13:00:17.009Z,16.73
2019-01-16T13:03:11.065Z,29.60
2019-01-16T13:05:50.954Z,15.87
2019-01-16T13:08:27.522Z,14.57
2019-01-16T13:11:07.612Z,9.97
2019-01-16T13:13:53.361Z,13.40
2019-01-16T13:16:39.650Z,20.53
2019-01-16T13:19:33.695Z,14.23
2019-01-16T13:22:23.977Z,15.03
2019-01-16T13:25:13.792Z,9.93
2019-01-16T13:28:00.264Z,16.73
2019-01-16T13:30:56.314Z,13.57
2019-01-16T13:33:49.457Z,18.47
2019-01-16T13:36:29.077Z,14.57
2019-01-16T13:39:09.246Z,15.10
2019-01-16T13:42:02.314Z,11.13
2019-01-16T13:44:55.757Z,15.40
2019-01-16T13:47:35.756Z,15.07
2019-01-16T13:50:17.601Z,14.73
2019-01-16T13:53:11.636Z,19.23
2019-01-16T13:55:55.341Z,15.50
2019-01-16T13:58:35.251Z,24.80
2019-01-16T14:01:18.194Z,19.13
2019-01-16T14:04:08.094Z,12.73
2019-01-16T14:06:58.105Z,13.80
2019-01-16T14:09:48.018Z,12.27
2019-01-16T14:12:25.438Z,24.33
2019-01-16T14:15:15.157Z,17.53
2019-01-16T14:18:08.111Z,13.10
2019-01-16T14:20:47.481Z,16.07
2019-01-16T14:23:27.710Z,10.33
2019-01-16T14:26:17.452Z,33.13
2019-01-16T14:29:04.178Z,15.27
2019-01-16T14:31:57.031Z,15.30
2019-01-16T14:34:40.238Z,16.73
2019-01-16T14:37:17.120Z,14.37
2019-01-16T14:39:53.760Z,16.90
2019-01-16T14:42:33.380Z,24.27
2019-01-16T14:45:29.159Z,8.27
2019-01-16T14:48:05.661Z,14.77
2019-01-16T14:50:45.075Z,14.93
2019-01-16T14:53:28.727Z,18.07
2019-01-16T14:56:15.241Z,13.40
2019-01-16T14:58:51.836Z,11.73
2019-01-16T15:01:32.629Z,14.13
2019-01-16T15:04:12.239Z,11.23
2019-01-16T15:06:55.642Z,11.93
2019-01-16T15:09:45.509Z,12.00
2019-01-16T15:12:22.275Z,15.40
2019-01-16T15:15:02.325Z,16.83
2019-01-16T15:17:48.725Z,21.63
2019-01-16T15:20:25.519Z,22.40
2019-01-16T15:23:15.605Z,27.43
2019-01-16T15:25:52.794Z,12.03
2019-01-16T15:28:32.150Z,25.80
2019-01-16T15:31:27.133Z,23.00
2019-01-16T15:34:04.039Z,21.03
2019-01-16T15:36:58.138Z,12.63
2019-01-16T15:39:52.188Z,16.57
2019-01-16T15:42:41.989Z,9.83
2019-01-16T15:45:21.377Z,12.63
2019-01-16T15:47:59.205Z,12.60
2019-01-16T15:50:35.715Z,19.03
2019-01-16T15:53:23.440Z,16.63
2019-01-16T15:56:19.312Z,19.80
2019-01-16T15:59:09.440Z,14.77
2019-01-16T16:01:52.624Z,16.17
2019-01-16T16:04:48.039Z,15.70
2019-01-16T16:07:33.661Z,7.07
2019-01-16T16:10:29.259Z,13.83
2019-01-16T16:13:09.250Z,9.00
2019-01-16T16:15:50.176Z,18.90
2019-01-16T16:18:44.120Z,22.50
2019-01-16T16:21:30.694Z,14.70
2019-01-16T16:24:20.125Z,16.13
2019-01-16T16:27:06.778Z,14.80
2019-01-16T16:29:43.274Z,19.20
2019-01-16T16:32:26.806Z,19.87
2019-01-16T16:35:20.842Z,11.80
2019-01-16T16:38:14.877Z,16.23
2019-01-16T16:40:51.674Z,36.87
2019-01-16T16:43:38.356Z,15.03
2019-01-16T16:46:21.082Z,13.93
2019-01-16T16:48:58.540Z,26.03
2019-01-16T16:51:35.387Z,19.43
2019-01-16T16:54:28.678Z,19.83
2019-01-16T16:57:05.525Z,27.00
2019-01-16T16:59:45.299Z,16.23
2019-01-16T17:02:26.052Z,14.67
2019-01-16T17:05:19.283Z,16.13
2019-01-16T17:07:58.831Z,16.40
2019-01-16T17:10:41.165Z,16.80
2019-01-16T17:13:21.086Z,13.93
2019-01-16T17:16:00.438Z,20.60
2019-01-16T17:18:39.988Z,22.73
2019-01-16T17:21:35.372Z,15.30
2019-01-16T17:24:11.886Z,21.13
2019-01-16T17:27:01.419Z,12.90
2019-01-16T17:29:51.831Z,12.47
2019-01-16T17:32:35.220Z,21.13
2019-01-16T17:35:11.996Z,19.83
2019-01-16T17:37:48.798Z,20.13
2019-01-16T17:40:38.700Z,20.70
2019-01-16T17:43:33.171Z,18.57
2019-01-16T17:46:16.194Z,18.00
2019-01-16T17:49:10.241Z,20.40
2019-01-16T17:52:04.325Z,24.57
2019-01-16T17:54:40.894Z,28.00
2019-01-16T17:57:27.538Z,26.37
2019-01-16T18:00:21.595Z,23.80
2019-01-16T18:03:05.135Z,21.73
2019-01-16T18:06:01.035Z,22.03
2019-01-16T18:08:40.414Z,19.93
2019-01-16T18:11:18.144Z,18.50
2019-01-16T18:14:12.211Z,14.67
2019-01-16T18:16:48.767Z,21.93
2019-01-16T18:19:34.924Z,16.20
2019-01-16T18:22:24.554Z,17.80
2019-01-16T18:25:20.501Z,35.50
2019-01-16T18:28:13.704Z,20.43
2019-01-16T18:31:08.130Z,21.83
2019-01-16T18:33:47.782Z,18.60
2019-01-16T18:36:27.731Z,19.60
2019-01-16T18:39:21.777Z,20.23
2019-01-16T18:42:11.368Z,21.53
2019-01-16T18:44:57.516Z,21.10
2019-01-16T18:47:47.449Z,20.83
2019-01-16T18:50:24.356Z,34.93
2019-01-16T18:53:13.581Z,21.97
2019-01-16T18:55:50.436Z,32.30
2019-01-16T18:58:44.766Z,29.27
2019-01-16T19:01:23.803Z,23.47
2019-01-16T19:04:00.301Z,15.70
2019-01-16T19:06:40.511Z,16.40
2019-01-16T19:09:34.577Z,31.23
2019-01-16T19:12:14.245Z,14.97
2019-01-16T19:14:53.674Z,20.50
2019-01-16T19:17:31.345Z,19.67
2019-01-16T19:20:27.604Z,47.93
2019-01-16T19:23:17.781Z,25.50
2019-01-16T19:26:13.919Z,16.40
2019-01-16T19:29:07.999Z,18.60
2019-01-16T19:31:45.733Z,30.77
2019-01-16T19:34:33.302Z,20.43
2019-01-16T19:37:20.021Z,22.30
2019-01-16T19:40:00.674Z,18.27
2019-01-16T19:42:37.298Z,18.47
2019-01-16T19:45:27.363Z,19.57
2019-01-16T19:48:13.788Z,26.27
2019-01-16T19:51:03.227Z,15.67
2019-01-16T19:53:39.755Z,22.80
2019-01-16T19:56:23.037Z,12.90
2019-01-16T19:58:59.962Z,24.63
2019-01-16T20:01:41.471Z,25.03
2019-01-16T20:04:19.176Z,21.30
2019-01-16T20:06:56.628Z,18.23
2019-01-16T20:09:33.718Z,20.10
2019-01-16T20:12:14.154Z,18.37
2019-01-16T20:15:10.203Z,33.73
2019-01-16T20:17:53.456Z,29.70
2019-01-16T20:20:34.001Z,32.93
2019-01-16T20:23:13.787Z,27.73
2019-01-16T20:25:53.431Z,22.87
2019-01-16T20:28:30.271Z,34.37
2019-01-16T20:31:07.096Z,24.60
2019-01-16T20:33:51.099Z,22.77
2019-01-16T20:36:33.715Z,40.13
2019-01-16T20:39:17.031Z,19.00
2019-01-16T20:42:02.852Z,26.63
2019-01-16T20:44:52.380Z,23.77
2019-01-16T20:47:30.059Z,33.83
2019-01-16T20:50:26.002Z,20.43
2019-01-16T20:53:20.196Z,30.23
2019-01-16T20:56:01.256Z,20.17
2019-01-16T20:58:47.405Z,33.90
2019-01-16T21:01:24.278Z,27.90
2019-01-16T21:04:07.446Z,24.10
2019-01-16T21:06:47.251Z,30.57
2019-01-16T21:09:27.255Z,22.73
2019-01-16T21:12:22.267Z,27.07
2019-01-16T21:15:08.235Z,21.30
2019-01-16T21:17:48.198Z,28.77
2019-01-16T21:20:31.079Z,21.33
2019-01-16T21:23:08.307Z,17.97
2019-01-16T21:25:45.183Z,29.33
2019-01-16T21:28:36.210Z,26.60
2019-01-16T21:31:12.790Z,21.73
2019-01-16T21:33:55.357Z,23.50
2019-01-16T21:36:44.925Z,27.80
2019-01-16T21:39:31.831Z,41.40
2019-01-16T21:42:18.478Z,34.07
2019-01-16T21:45:14.659Z,21.73
2019-01-16T21:48:00.298Z,24.60
2019-01-16T21:50:37.770Z,35.93
2019-01-16T21:53:14.531Z,20.63
2019-01-16T21:56:08.580Z,27.57
2019-01-16T21:58:48.284Z,25.03
2019-01-16T22:01:24.801Z,27.93
2019-01-16T22:04:14.945Z,23.93
2019-01-16T22:06:54.616Z,24.57
2019-01-16T22:09:44.691Z,22.80
2019-01-16T22:12:21.177Z,34.00
2019-01-16T22:15:04.013Z,26.60
2019-01-16T22:17:40.950Z,39.00
2019-01-16T22:20:23.054Z,24.43
2019-01-16T22:23:09.996Z,39.07
2019-01-16T22:25:49.698Z,23.00
2019-01-16T22:28:32.445Z,27.53
2019-01-16T22:31:22.498Z,39.50
2019-01-16T22:34:18.964Z,23.63
2019-01-16T22:37:03.366Z,27.33
2019-01-16T22:39:39.851Z,26.17
2019-01-16T22:42:17.829Z,24.27
2019-01-16T22:45:01.007Z,27.50
2019-01-16T22:47:45.452Z,29.37
2019-01-16T22:50:22.868Z,18.97
2019-01-16T22:53:16.778Z,36.07
2019-01-16T22:55:53.528Z,24.43
2019-01-16T22:58:43.535Z,25.90
2019-01-16T23:01:23.317Z,28.43
2019-01-16T23:04:13.489Z,21.20
2019-01-16T23:07:07.826Z,21.07
2019-01-16T23:09:47.519Z,17.40
2019-01-16T23:12:30.695Z,24.47
2019-01-16T23:15:14.538Z,18.40
2019-01-16T23:17:51.398Z,28.40
2019-01-16T23:20:27.921Z,19.47
2019-01-16T23:23:07.666Z,20.50
2019-01-16T23:25:47.045Z,20.97
2019-01-16T23:28:26.490Z,30.47
2019-01-16T23:31:22.511Z,18.77
2019-01-16T23:34:12.010Z,21.27
2019-01-16T23:36:48.887Z,22.00
2019-01-16T23:39:28.531Z,25.60
2019-01-16T23:42:08.103Z,27.80
2019-01-16T23:44:54.093Z,26.53
2019-01-16T23:47:34.329Z,20.67
2019-01-16T23:50:18.245Z,25.50
2019-01-16T23:52:57.899Z,22.97
2019-01-16T23:55:37.848Z,20.23
2019-01-16T23:58:30.789Z,27.67
